Time;durP1;ratioP1;P1;durP2;ratioP2;P2;SDS_P1;SDS_P2;PMS_P1;PMS_P2;Temp;Humidity;BMP_temperature;BMP_pressure;BME280_temperature;BME280_humidity;BME280_pressure;Samples;Min_cycle;Max_cycle;Signal;HPM_P1;HPM_P2
2021/12/18 00:01:25;;;;;;;19.75;13.48;;;4.70;99.90;;;;;;4996993;28;20205;-69
2021/12/18 00:03:51;;;;;;;16.70;13.30;;;4.70;99.90;;;;;;4997739;28;20662;-69
2021/12/18 00:06:18;;;;;;;17.73;13.55;;;4.70;99.90;;;;;;4996410;28;20656;-69
2021/12/18 00:08:45;;;;;;;20.88;13.57;;;4.60;99.90;;;;;;4997838;28;20215;-69
2021/12/18 00:11:12;;;;;;;17.25;14.13;;;4.60;99.90;;;;;;4998228;28;20206;-69
2021/12/18 00:13:39;;;;;;;20.70;13.95;;;4.50;99.90;;;;;;4997120;28;20207;-69
2021/12/18 00:16:05;;;;;;;24.02;15.18;;;4.50;99.90;;;;;;4997766;28;20215;-69
2021/12/18 00:18:34;;;;;;;21.38;15.48;;;4.50;99.90;;;;;;4997890;28;20205;-68
2021/12/18 00:21:01;;;;;;;22.17;14.93;;;4.40;99.90;;;;;;4997258;28;20226;-69
2021/12/18 00:23:28;;;;;;;20.52;14.07;;;4.40;99.90;;;;;;4997108;28;20253;-70
2021/12/18 00:25:55;;;;;;;23.52;15.23;;;4.40;99.90;;;;;;4996581;28;20202;-71
2021/12/18 00:28:21;;;;;;;22.42;17.20;;;4.40;99.90;;;;;;4996912;28;20198;-70
2021/12/18 00:30:48;;;;;;;29.92;18.63;;;4.30;99.90;;;;;;4997330;28;20293;-70
2021/12/18 00:33:14;;;;;;;24.27;16.60;;;4.30;99.90;;;;;;4997290;28;20662;-71
2021/12/18 00:35:41;;;;;;;26.05;16.90;;;4.30;99.90;;;;;;4996909;28;20222;-70
2021/12/18 00:38:08;;;;;;;22.35;16.58;;;4.30;99.90;;;;;;4996138;28;20202;-70
2021/12/18 00:40:45;;;;;;;24.27;16.35;;;4.30;99.90;;;;;;4997356;28;20276;-72
2021/12/18 00:43:23;;;;;;;20.00;14.90;;;4.30;99.90;;;;;;4996602;28;20206;-70
2021/12/18 00:45:50;;;;;;;23.70;15.77;;;4.20;99.90;;;;;;4981636;28;20187;-70
2021/12/18 00:48:16;;;;;;;25.70;15.73;;;4.20;99.90;;;;;;5000530;28;20217;-71
2021/12/18 00:50:43;;;;;;;24.90;16.95;;;4.20;99.90;;;;;;4999957;28;20198;-70
2021/12/18 00:53:09;;;;;;;21.40;15.35;;;4.10;99.90;;;;;;5001529;28;20198;-71
2021/12/18 00:55:37;;;;;;;27.38;15.82;;;4.10;99.90;;;;;;5000334;28;20584;-71
2021/12/18 00:58:04;;;;;;;27.67;17.50;;;4.10;99.90;;;;;;4999742;28;20261;-70
2021/12/18 01:00:33;;;;;;;23.85;16.85;;;4.00;99.90;;;;;;5000137;28;20288;-71
2021/12/18 01:03:01;;;;;;;27.80;18.10;;;4.10;99.90;;;;;;5000055;28;20329;-70
2021/12/18 01:05:31;;;;;;;29.40;18.48;;;4.00;99.90;;;;;;5000378;28;20206;-71
2021/12/18 01:07:58;;;;;;;31.85;19.17;;;4.00;99.90;;;;;;5001082;28;20207;-69
2021/12/18 01:10:43;;;;;;;29.95;20.38;;;4.00;99.90;;;;;;5000093;28;20206;-70
2021/12/18 01:13:14;;;;;;;27.35;18.40;;;4.00;99.90;;;;;;5000623;28;20183;-68
2021/12/18 01:15:47;;;;;;;26.05;18.10;;;4.00;99.90;;;;;;5000464;28;20222;-69
2021/12/18 01:23:43;;;;;;;30.05;17.95;;;4.00;99.90;;;;;;4999953;28;20190;-71
2021/12/18 01:26:10;;;;;;;27.20;17.33;;;4.00;99.90;;;;;;4999756;28;20345;-70
2021/12/18 01:28:36;;;;;;;27.00;18.88;;;4.00;99.90;;;;;;5000183;28;20605;-70
2021/12/18 01:31:03;;;;;;;26.20;17.35;;;4.00;99.90;;;;;;4999678;28;20267;-70
2021/12/18 01:33:30;;;;;;;22.40;17.08;;;4.00;99.90;;;;;;5000495;28;20195;-71
2021/12/18 01:36:00;;;;;;;23.13;16.83;;;4.00;99.90;;;;;;4999472;28;20762;-72
2021/12/18 01:38:29;;;;;;;26.40;16.42;;;4.00;99.90;;;;;;5000112;28;20203;-70
2021/12/18 01:40:56;;;;;;;24.25;17.48;;;4.10;99.90;;;;;;4999168;28;20573;-70
2021/12/18 01:46:18;;;;;;;21.88;16.30;;;4.10;99.90;;;;;;4999792;28;20198;-70
2021/12/18 01:51:46;;;;;;;27.00;16.65;;;4.20;99.90;;;;;;5000052;28;20202;-71
2021/12/18 01:54:13;;;;;;;23.45;15.13;;;4.10;99.90;;;;;;4999314;28;20226;-70
2021/12/18 01:56:40;;;;;;;21.88;14.88;;;4.10;99.90;;;;;;4982110;28;20207;-71
2021/12/18 01:59:06;;;;;;;17.33;12.73;;;4.10;99.90;;;;;;5000024;28;20618;-70
2021/12/18 02:01:33;;;;;;;19.85;13.68;;;4.10;99.90;;;;;;4998614;28;20658;-69
2021/12/18 02:03:59;;;;;;;21.35;14.60;;;4.20;99.90;;;;;;4999720;28;20203;-68
2021/12/18 02:06:26;;;;;;;22.95;14.70;;;4.30;99.90;;;;;;4998687;28;20233;-68
2021/12/18 02:08:52;;;;;;;22.20;14.15;;;4.30;99.90;;;;;;4999663;28;20210;-69
2021/12/18 02:21:56;;;;;;;18.95;13.90;;;4.50;99.90;;;;;;4999639;28;20249;-68
2021/12/18 02:24:26;;;;;;;23.17;15.93;;;4.50;99.90;;;;;;4999477;28;20207;-69
2021/12/18 02:26:53;;;;;;;19.85;14.82;;;4.50;99.90;;;;;;4999058;28;20199;-69
2021/12/18 02:29:19;;;;;;;17.10;12.75;;;4.50;99.90;;;;;;4999858;28;20260;-68
2021/12/18 02:31:46;;;;;;;21.10;15.57;;;4.60;99.90;;;;;;4999915;28;20215;-68
2021/12/18 02:34:21;;;;;;;21.27;14.73;;;4.60;99.90;;;;;;4999493;28;20601;-68
2021/12/18 02:36:49;;;;;;;21.25;14.23;;;4.60;99.90;;;;;;4998940;28;20209;-68
2021/12/18 02:39:25;;;;;;;24.27;14.18;;;4.60;99.90;;;;;;4999645;28;20207;-69
2021/12/18 02:44:39;;;;;;;24.40;15.35;;;4.60;99.90;;;;;;4999433;28;20555;-69
2021/12/18 02:47:07;;;;;;;22.92;15.18;;;4.60;99.90;;;;;;4998804;28;20202;-69
2021/12/18 02:49:34;;;;;;;23.70;14.55;;;4.60;99.90;;;;;;4998424;28;20264;-69
2021/12/18 02:52:01;;;;;;;24.33;16.40;;;4.70;99.90;;;;;;4997730;28;20202;-69
2021/12/18 02:54:28;;;;;;;22.85;14.55;;;4.70;99.90;;;;;;4998672;28;20222;-69
2021/12/18 02:56:54;;;;;;;22.25;14.25;;;4.70;99.90;;;;;;4997872;28;20202;-69
2021/12/18 02:59:22;;;;;;;22.30;15.25;;;4.80;99.90;;;;;;4997827;28;20213;-69
2021/12/18 03:01:48;;;;;;;24.60;16.25;;;4.80;99.90;;;;;;4997471;28;20205;-69
2021/12/18 03:04:26;;;;;;;24.20;15.32;;;4.70;99.90;;;;;;4998504;28;20214;-68
2021/12/18 03:06:58;;;;;;;20.83;14.10;;;4.70;99.90;;;;;;4997894;28;20269;-68
2021/12/18 03:21:08;;;;;;;22.25;14.85;;;4.90;99.90;;;;;;4998483;28;20270;-68
2021/12/18 03:25:57;;;;;;;21.23;13.75;;;4.80;99.90;;;;;;4998938;28;20187;-68
2021/12/18 03:28:27;;;;;;;24.08;15.55;;;4.80;99.90;;;;;;4998227;28;20194;-68
2021/12/18 03:30:55;;;;;;;23.67;14.60;;;4.80;99.90;;;;;;4997325;28;20187;-68
2021/12/18 03:33:24;;;;;;;22.05;15.60;;;4.80;99.90;;;;;;4997113;28;20206;-69
2021/12/18 03:35:51;;;;;;;25.23;13.48;;;4.80;99.90;;;;;;4997430;28;20257;-69
2021/12/18 03:38:17;;;;;;;23.08;15.90;;;4.70;99.90;;;;;;4998016;28;20524;-69
2021/12/18 03:40:44;;;;;;;23.33;16.02;;;4.70;99.90;;;;;;4997498;28;20250;-69
2021/12/18 03:43:10;;;;;;;23.42;16.55;;;4.70;99.90;;;;;;4997812;28;20209;-69
2021/12/18 03:45:37;;;;;;;24.90;17.35;;;4.70;99.90;;;;;;4998320;28;20256;-69
2021/12/18 03:48:03;;;;;;;25.75;17.23;;;4.80;99.90;;;;;;4998027;28;20253;-69
2021/12/18 03:50:30;;;;;;;23.95;15.60;;;4.70;99.90;;;;;;4997920;28;20289;-69
2021/12/18 03:52:56;;;;;;;21.88;15.95;;;4.70;99.90;;;;;;4997509;28;20214;-68
2021/12/18 03:55:23;;;;;;;22.05;16.02;;;4.80;99.90;;;;;;4997507;28;20227;-68
2021/12/18 03:57:50;;;;;;;28.95;17.80;;;4.70;99.90;;;;;;4997558;28;20290;-69
2021/12/18 04:00:17;;;;;;;22.60;16.10;;;4.70;99.90;;;;;;4996817;28;20226;-68
2021/12/18 04:02:44;;;;;;;23.40;16.85;;;4.70;99.90;;;;;;4997546;28;20207;-69
2021/12/18 04:05:11;;;;;;;24.52;16.90;;;4.70;99.90;;;;;;4979942;28;20207;-68
2021/12/18 04:07:44;;;;;;;26.50;16.25;;;4.70;99.90;;;;;;4996547;28;20226;-68
2021/12/18 04:10:12;;;;;;;23.30;15.23;;;4.70;99.90;;;;;;4995416;28;20272;-68
2021/12/18 04:12:39;;;;;;;23.83;15.95;;;4.70;99.90;;;;;;4997608;28;20289;-68
2021/12/18 04:15:06;;;;;;;23.30;15.73;;;4.60;99.90;;;;;;4996373;28;20226;-68
2021/12/18 04:17:32;;;;;;;23.45;15.75;;;4.60;99.90;;;;;;4996018;28;20202;-68
2021/12/18 04:19:59;;;;;;;25.70;16.25;;;4.60;99.90;;;;;;4994807;28;20198;-69
2021/12/18 04:22:25;;;;;;;28.35;18.58;;;4.60;99.90;;;;;;4996373;28;20544;-68
2021/12/18 04:24:52;;;;;;;25.13;17.50;;;4.60;99.90;;;;;;4979215;28;20211;-68
2021/12/18 04:27:18;;;;;;;23.42;15.38;;;4.60;99.90;;;;;;4995981;28;20207;-69
2021/12/18 04:29:45;;;;;;;26.30;15.85;;;4.60;99.90;;;;;;4995860;28;20214;-68
2021/12/18 04:32:11;;;;;;;27.50;16.52;;;4.60;99.90;;;;;;4995732;28;20260;-69
2021/12/18 04:34:38;;;;;;;24.33;16.17;;;4.60;99.90;;;;;;4996425;28;20290;-69
2021/12/18 04:37:04;;;;;;;27.52;18.52;;;4.70;99.90;;;;;;4996495;28;20206;-69
2021/12/18 04:39:30;;;;;;;22.35;15.38;;;4.70;99.90;;;;;;4996049;28;20202;-69
2021/12/18 04:41:58;;;;;;;25.23;16.17;;;4.70;99.90;;;;;;4978386;28;20613;-69
2021/12/18 04:44:25;;;;;;;25.63;16.30;;;4.70;99.90;;;;;;4995746;28;20655;-68
2021/12/18 04:46:53;;;;;;;24.60;17.30;;;4.70;99.90;;;;;;4996377;28;20202;-68
2021/12/18 04:49:19;;;;;;;26.73;17.83;;;4.70;99.90;;;;;;4995961;28;20198;-68
2021/12/18 04:51:46;;;;;;;24.52;16.73;;;4.70;99.90;;;;;;4995660;28;20598;-69
2021/12/18 04:54:12;;;;;;;28.33;17.80;;;4.70;99.90;;;;;;4995739;28;20198;-69
2021/12/18 04:56:39;;;;;;;27.35;17.77;;;4.70;99.90;;;;;;4995394;28;20257;-68
2021/12/18 04:59:06;;;;;;;27.35;18.02;;;4.70;99.90;;;;;;4996408;28;20214;-70
2021/12/18 05:01:38;;;;;;;27.23;18.35;;;4.70;99.90;;;;;;4995977;28;20206;-69
2021/12/18 05:04:09;;;;;;;24.80;16.67;;;4.60;99.90;;;;;;4996348;28;20261;-68
2021/12/18 05:06:38;;;;;;;24.92;15.98;;;4.70;99.90;;;;;;4995729;28;20234;-68
2021/12/18 05:09:05;;;;;;;23.50;17.02;;;4.70;99.90;;;;;;4995613;28;20293;-69
2021/12/18 05:11:32;;;;;;;23.10;16.05;;;4.70;99.90;;;;;;4995358;28;20725;-69
2021/12/18 05:13:58;;;;;;;23.35;16.90;;;4.70;99.90;;;;;;4996016;28;20749;-69
2021/12/18 05:16:24;;;;;;;24.27;16.30;;;4.70;99.90;;;;;;4996614;28;20223;-70
2021/12/18 05:18:51;;;;;;;24.33;16.20;;;4.60;99.90;;;;;;4996220;28;20202;-68
2021/12/18 05:21:17;;;;;;;20.20;14.60;;;4.60;99.90;;;;;;4995770;28;20227;-69
2021/12/18 05:23:44;;;;;;;33.10;17.60;;;4.60;99.90;;;;;;4995895;28;20203;-69
2021/12/18 05:26:10;;;;;;;22.10;15.60;;;4.60;99.90;;;;;;4996630;28;20203;-69
2021/12/18 05:28:36;;;;;;;28.88;16.13;;;4.60;99.90;;;;;;4995624;28;20542;-69
2021/12/18 05:31:04;;;;;;;25.08;16.48;;;4.60;99.90;;;;;;4995842;28;20265;-68
2021/12/18 05:33:30;;;;;;;24.38;15.05;;;4.70;99.90;;;;;;4980665;28;20207;-69
2021/12/18 05:35:56;;;;;;;33.80;14.13;;;4.70;99.90;;;;;;4998969;28;20276;-69
2021/12/18 05:38:23;;;;;;;25.95;16.20;;;4.70;99.90;;;;;;4999824;28;20202;-69
2021/12/18 05:40:49;;;;;;;22.08;15.95;;;4.70;99.90;;;;;;4999486;28;20203;-69
2021/12/18 05:43:16;;;;;;;22.92;14.68;;;4.70;99.90;;;;;;4999539;28;20260;-69
2021/12/18 05:45:42;;;;;;;27.10;15.50;;;4.60;99.90;;;;;;4998324;28;20627;-68
2021/12/18 05:48:09;;;;;;;26.52;16.45;;;4.60;99.90;;;;;;4999078;28;20229;-69
2021/12/18 05:50:36;;;;;;;22.83;15.32;;;4.60;99.90;;;;;;4997721;28;20210;-69
2021/12/18 05:53:03;;;;;;;21.02;15.18;;;4.70;99.90;;;;;;4998955;28;20209;-69
2021/12/18 05:55:30;;;;;;;27.60;17.13;;;4.70;99.90;;;;;;4998175;28;20223;-69
2021/12/18 05:57:57;;;;;;;27.63;17.10;;;4.60;99.90;;;;;;4998363;28;20603;-69
2021/12/18 06:00:24;;;;;;;25.58;17.13;;;4.60;99.90;;;;;;4998796;28;20261;-69
2021/12/18 06:02:50;;;;;;;30.98;18.85;;;4.60;99.90;;;;;;4998262;28;20203;-69
2021/12/18 06:05:17;;;;;;;23.35;15.52;;;4.60;99.90;;;;;;4999089;28;20215;-69
2021/12/18 06:10:10;;;;;;;26.38;15.48;;;4.60;99.90;;;;;;4998964;28;20345;-69
2021/12/18 06:12:36;;;;;;;26.45;15.63;;;4.60;99.90;;;;;;4998251;28;20207;-68
2021/12/18 06:15:03;;;;;;;23.85;15.82;;;4.60;99.90;;;;;;4998280;28;20223;-69
2021/12/18 06:17:29;;;;;;;27.05;14.93;;;4.50;99.90;;;;;;4981801;28;20206;-69
2021/12/18 06:19:55;;;;;;;29.02;15.82;;;4.60;99.90;;;;;;4997412;28;20207;-68
2021/12/18 06:22:22;;;;;;;25.15;15.95;;;4.60;99.90;;;;;;4997764;28;20190;-70
2021/12/18 06:24:48;;;;;;;23.38;14.63;;;4.60;99.90;;;;;;4998442;28;20257;-69
2021/12/18 06:27:15;;;;;;;26.63;16.50;;;4.60;99.90;;;;;;4998719;28;20207;-69
2021/12/18 06:29:42;;;;;;;26.05;15.55;;;4.50;99.90;;;;;;4998492;28;20202;-69
2021/12/18 06:32:08;;;;;;;23.40;15.27;;;4.50;99.90;;;;;;4997296;28;20199;-70
2021/12/18 06:34:35;;;;;;;30.30;17.52;;;4.40;99.90;;;;;;4996572;28;20194;-69
2021/12/18 06:37:01;;;;;;;24.90;15.35;;;4.30;99.90;;;;;;4997416;28;20276;-69
2021/12/18 06:39:28;;;;;;;28.98;18.08;;;4.40;99.90;;;;;;4980220;28;20217;-70
2021/12/18 06:41:54;;;;;;;24.45;15.95;;;4.40;99.90;;;;;;4997295;28;20252;-69
2021/12/18 06:44:21;;;;;;;24.85;16.02;;;4.40;99.90;;;;;;4978180;28;20272;-69
2021/12/18 06:46:47;;;;;;;23.02;14.60;;;4.40;99.90;;;;;;4997210;28;20206;-69
2021/12/18 06:49:14;;;;;;;29.38;16.80;;;4.50;99.90;;;;;;4996951;28;20213;-69
2021/12/18 06:51:40;;;;;;;26.23;17.02;;;4.40;99.90;;;;;;4997737;28;20209;-69
2021/12/18 06:54:06;;;;;;;28.08;15.60;;;4.40;99.90;;;;;;4997357;28;20218;-69
2021/12/18 06:56:33;;;;;;;24.48;15.05;;;4.30;99.90;;;;;;4996851;28;20230;-69
2021/12/18 06:58:59;;;;;;;25.25;16.13;;;4.30;99.90;;;;;;4996074;28;20206;-69
2021/12/18 07:01:26;;;;;;;24.27;15.95;;;4.30;99.90;;;;;;4997257;28;20253;-68
2021/12/18 07:03:52;;;;;;;27.30;16.45;;;4.30;99.90;;;;;;4996836;28;20346;-69
2021/12/18 07:06:19;;;;;;;29.80;17.35;;;4.30;99.90;;;;;;4996930;28;20265;-69
2021/12/18 07:08:45;;;;;;;29.20;16.60;;;4.30;99.90;;;;;;4996426;28;20207;-68
2021/12/18 07:11:12;;;;;;;28.90;17.58;;;4.30;99.90;;;;;;4978726;28;20670;-68
2021/12/18 07:13:38;;;;;;;26.88;16.48;;;4.30;99.90;;;;;;4979176;28;20202;-69
2021/12/18 07:16:05;;;;;;;27.48;15.45;;;4.30;99.90;;;;;;4978769;28;20682;-69
2021/12/18 07:18:31;;;;;;;29.80;17.30;;;4.30;99.90;;;;;;4995416;28;20252;-68
2021/12/18 07:20:58;;;;;;;24.35;15.05;;;4.30;99.90;;;;;;4995353;28;20690;-69
2021/12/18 07:23:24;;;;;;;29.65;17.38;;;4.30;99.90;;;;;;4996233;28;20510;-69
2021/12/18 07:25:51;;;;;;;29.40;17.17;;;4.30;99.90;;;;;;4996090;28;20214;-69
2021/12/18 07:28:17;;;;;;;28.02;16.92;;;4.30;99.90;;;;;;4995991;28;20218;-69
2021/12/18 07:30:44;;;;;;;29.15;17.48;;;4.30;99.90;;;;;;4996201;28;20241;-69
2021/12/18 07:33:11;;;;;;;26.83;16.60;;;4.30;99.90;;;;;;4995670;28;20206;-69
2021/12/18 07:35:38;;;;;;;27.40;16.42;;;4.40;99.90;;;;;;4995271;28;20222;-69
2021/12/18 07:38:05;;;;;;;29.13;16.15;;;4.30;99.90;;;;;;4996319;28;20210;-69
2021/12/18 07:40:33;;;;;;;27.17;15.70;;;4.30;99.90;;;;;;4995961;28;20205;-69
2021/12/18 07:42:59;;;;;;;27.02;16.13;;;4.40;99.90;;;;;;4996390;28;20253;-69
2021/12/18 07:45:26;;;;;;;25.25;16.70;;;4.40;99.90;;;;;;4995323;28;20268;-70
2021/12/18 07:47:53;;;;;;;28.08;16.17;;;4.50;99.90;;;;;;4995748;28;20744;-69
2021/12/18 07:50:20;;;;;;;26.00;16.55;;;4.50;99.90;;;;;;4977931;28;20206;-68
2021/12/18 07:52:48;;;;;;;26.98;15.82;;;4.50;99.90;;;;;;4995018;28;20221;-69
2021/12/18 07:55:15;;;;;;;24.08;16.67;;;4.60;99.90;;;;;;4995016;28;20210;-69
2021/12/18 07:57:41;;;;;;;28.75;18.10;;;4.50;99.90;;;;;;4996023;28;20233;-68
2021/12/18 08:00:12;;;;;;;31.08;17.10;;;4.50;99.90;;;;;;4995656;28;20209;-69
2021/12/18 08:02:40;;;;;;;30.05;16.92;;;4.50;99.90;;;;;;4995600;28;20206;-68
2021/12/18 08:05:07;;;;;;;25.88;16.25;;;4.50;99.90;;;;;;4996123;28;20219;-71
2021/12/18 08:07:34;;;;;;;25.13;15.88;;;4.60;99.90;;;;;;4995240;28;20214;-70
2021/12/18 08:10:01;;;;;;;31.00;16.38;;;4.50;99.90;;;;;;4996166;28;20203;-71
2021/12/18 08:12:27;;;;;;;31.42;15.60;;;4.50;99.90;;;;;;4994872;28;20272;-70
2021/12/18 08:14:55;;;;;;;28.17;18.55;;;4.50;99.90;;;;;;4995677;28;20207;-70
2021/12/18 08:17:23;;;;;;;25.02;15.93;;;4.60;99.90;;;;;;4995681;28;20215;-70
2021/12/18 08:19:49;;;;;;;29.05;15.75;;;4.50;99.90;;;;;;4995166;28;20548;-71
2021/12/18 08:22:16;;;;;;;25.88;16.30;;;4.50;99.90;;;;;;4995332;28;20198;-71
2021/12/18 08:24:42;;;;;;;24.52;15.05;;;4.50;99.90;;;;;;4977557;28;20199;-71
2021/12/18 08:27:08;;;;;;;27.92;17.33;;;4.60;99.90;;;;;;4995236;28;20202;-70
2021/12/18 08:29:36;;;;;;;27.17;17.83;;;4.50;99.90;;;;;;4995143;28;20214;-70
2021/12/18 08:32:03;;;;;;;32.95;16.73;;;4.60;99.90;;;;;;4996008;28;20211;-70
2021/12/18 08:34:29;;;;;;;28.50;16.67;;;4.60;99.90;;;;;;4995397;28;20210;-71
2021/12/18 08:36:55;;;;;;;27.02;17.10;;;4.60;99.90;;;;;;4994788;28;20226;-70
2021/12/18 08:39:22;;;;;;;23.77;16.45;;;4.50;99.90;;;;;;4995615;28;20261;-70
2021/12/18 08:41:49;;;;;;;23.35;15.43;;;4.50;99.90;;;;;;4995683;28;20203;-71
2021/12/18 08:44:15;;;;;;;28.27;16.73;;;4.40;99.90;;;;;;4995038;28;20211;-71
2021/12/18 08:46:42;;;;;;;24.98;15.65;;;4.50;99.90;;;;;;4995322;28;20599;-71
2021/12/18 08:49:09;;;;;;;23.88;14.85;;;4.60;99.90;;;;;;4994285;28;20243;-70
2021/12/18 08:51:37;;;;;;;29.02;15.82;;;4.60;99.90;;;;;;4995307;28;20203;-70
2021/12/18 08:54:04;;;;;;;30.00;16.73;;;4.60;99.90;;;;;;4995390;28;20213;-70
2021/12/18 08:56:31;;;;;;;27.45;16.30;;;4.60;99.90;;;;;;4994804;28;20289;-71
2021/12/18 08:59:00;;;;;;;25.65;16.00;;;4.50;99.90;;;;;;4995409;28;20240;-70
2021/12/18 09:01:28;;;;;;;27.52;15.23;;;4.50;99.90;;;;;;4995252;28;20202;-70
2021/12/18 09:03:54;;;;;;;26.52;16.15;;;4.60;99.90;;;;;;4995739;28;20206;-70
2021/12/18 09:06:21;;;;;;;24.10;15.50;;;4.60;99.90;;;;;;4995108;28;20230;-70
2021/12/18 09:08:49;;;;;;;26.80;15.38;;;4.60;99.90;;;;;;4988026;28;20250;-70
2021/12/18 09:11:15;;;;;;;25.42;15.38;;;4.50;99.90;;;;;;4979294;28;20199;-70
2021/12/18 09:13:42;;;;;;;27.15;15.40;;;4.60;99.90;;;;;;4978233;28;20203;-70
2021/12/18 09:16:08;;;;;;;23.70;15.38;;;4.60;99.90;;;;;;4977432;28;20301;-72
2021/12/18 09:18:35;;;;;;;25.20;15.82;;;4.60;99.90;;;;;;4979597;28;20233;-70
2021/12/18 09:21:02;;;;;;;23.35;15.02;;;4.60;99.90;;;;;;4994072;28;20238;-70
2021/12/18 09:23:29;;;;;;;24.05;14.98;;;4.60;99.90;;;;;;4998437;28;20207;-70
2021/12/18 09:25:55;;;;;;;31.00;15.38;;;4.60;99.90;;;;;;4998029;28;20210;-71
2021/12/18 09:28:22;;;;;;;31.25;17.65;;;4.60;99.90;;;;;;4998884;28;20210;-70
2021/12/18 09:30:49;;;;;;;26.15;15.93;;;4.60;99.90;;;;;;4998142;28;20203;-70
2021/12/18 09:33:17;;;;;;;27.05;17.35;;;4.60;99.90;;;;;;4997755;28;20206;-72
2021/12/18 09:35:44;;;;;;;27.75;15.70;;;4.60;99.90;;;;;;4997313;28;20294;-70
2021/12/18 09:38:11;;;;;;;24.40;16.10;;;4.70;99.90;;;;;;4979793;28;20203;-70
2021/12/18 09:40:38;;;;;;;24.55;16.15;;;4.70;99.90;;;;;;4979652;28;20198;-70
2021/12/18 09:43:04;;;;;;;27.55;16.35;;;4.60;99.90;;;;;;4997226;28;20670;-70
2021/12/18 09:45:31;;;;;;;23.58;15.18;;;4.70;99.90;;;;;;4997509;28;20202;-71
2021/12/18 09:47:58;;;;;;;29.60;16.42;;;4.80;99.90;;;;;;4997415;28;20203;-70
2021/12/18 09:50:27;;;;;;;27.73;16.63;;;4.90;99.90;;;;;;4997160;28;20269;-70
2021/12/18 09:52:54;;;;;;;28.92;16.67;;;4.90;99.90;;;;;;4997166;28;20241;-70
2021/12/18 09:55:21;;;;;;;26.48;16.08;;;4.80;99.90;;;;;;4980183;28;20249;-69
2021/12/18 09:57:49;;;;;;;24.60;14.63;;;4.80;99.90;;;;;;4997327;28;20234;-70
2021/12/18 10:00:22;;;;;;;22.98;15.43;;;4.80;99.90;;;;;;4998025;28;20206;-71
2021/12/18 10:02:48;;;;;;;27.67;16.13;;;4.90;99.90;;;;;;4999180;28;20179;-70
2021/12/18 10:05:30;;;;;;;26.73;17.13;;;4.90;99.90;;;;;;4998440;28;20207;-70
2021/12/18 10:08:12;;;;;;;30.13;16.17;;;5.00;99.90;;;;;;4998210;28;20541;-70
2021/12/18 10:10:58;;;;;;;24.83;14.88;;;4.90;99.90;;;;;;4980890;28;20564;-70
2021/12/18 10:13:25;;;;;;;28.67;16.75;;;5.00;99.90;;;;;;4997841;28;20205;-70
2021/12/18 10:16:11;;;;;;;21.20;14.57;;;5.10;99.90;;;;;;4996690;28;20206;-71
2021/12/18 10:18:38;;;;;;;25.75;14.80;;;5.00;99.90;;;;;;4997928;28;20206;-70
2021/12/18 10:21:31;;;;;;;24.55;14.75;;;5.00;99.90;;;;;;4998386;28;20234;-71
2021/12/18 10:24:14;;;;;;;22.52;14.80;;;5.00;99.90;;;;;;4993937;28;20203;-69
2021/12/18 10:26:42;;;;;;;23.13;15.43;;;5.10;99.90;;;;;;4997441;28;20548;-70
2021/12/18 10:29:33;;;;;;;25.05;15.30;;;5.10;99.90;;;;;;4998214;28;20215;-70
2021/12/18 10:32:05;;;;;;;22.83;14.18;;;5.00;99.90;;;;;;4998592;28;20206;-70
2021/12/18 10:34:32;;;;;;;26.55;16.50;;;5.00;99.90;;;;;;4998893;28;20213;-69
2021/12/18 10:37:12;;;;;;;24.17;15.77;;;5.10;99.90;;;;;;4997668;28;20222;-68
2021/12/18 10:40:03;;;;;;;24.42;14.55;;;5.20;99.90;;;;;;4997699;28;20208;-69
2021/12/18 10:42:31;;;;;;;25.75;15.00;;;5.20;99.90;;;;;;4998633;28;20226;-70
2021/12/18 10:45:08;;;;;;;23.95;15.55;;;5.30;99.90;;;;;;4998385;28;20229;-70
2021/12/18 10:47:53;;;;;;;22.88;15.77;;;5.40;99.90;;;;;;4998053;28;20187;-69
2021/12/18 10:50:25;;;;;;;23.92;14.68;;;5.50;99.90;;;;;;4996884;28;20214;-71
2021/12/18 10:52:59;;;;;;;23.25;15.38;;;5.60;99.90;;;;;;4996115;28;20280;-71
2021/12/18 10:55:35;;;;;;;25.40;13.70;;;5.50;99.90;;;;;;4997284;28;20229;-71
2021/12/18 10:58:03;;;;;;;26.30;15.18;;;5.40;99.90;;;;;;4996858;28;20230;-70
2021/12/18 11:00:40;;;;;;;35.22;15.70;;;5.40;99.90;;;;;;4997358;28;20207;-70
2021/12/18 11:03:21;;;;;;;23.52;14.25;;;5.40;99.90;;;;;;4997659;28;20199;-70
2021/12/18 11:06:10;;;;;;;23.95;16.63;;;5.40;99.90;;;;;;4997112;28;20222;-70
2021/12/18 11:08:56;;;;;;;23.48;14.70;;;5.50;99.90;;;;;;4984413;28;20210;-70
2021/12/18 11:14:07;;;;;;;29.42;14.73;;;5.60;99.90;;;;;;4996706;28;20198;-70
2021/12/18 11:16:36;;;;;;;29.30;18.60;;;5.60;99.90;;;;;;4996002;28;20227;-70
2021/12/18 11:19:04;;;;;;;24.38;14.90;;;5.60;99.90;;;;;;4996344;28;20293;-70
2021/12/18 11:21:32;;;;;;;21.13;14.65;;;5.40;99.90;;;;;;4996311;28;20234;-70
2021/12/18 11:24:05;;;;;;;26.00;15.35;;;5.50;99.90;;;;;;4996366;28;20670;-70
2021/12/18 11:26:41;;;;;;;25.13;16.70;;;5.50;99.90;;;;;;4996205;28;20545;-71
2021/12/18 11:29:18;;;;;;;21.98;13.77;;;5.50;99.90;;;;;;4995767;28;20206;-70
2021/12/18 11:31:46;;;;;;;22.75;14.55;;;5.30;99.90;;;;;;4995893;28;20688;-70
2021/12/18 11:34:13;;;;;;;22.73;15.50;;;5.30;99.90;;;;;;4995701;28;20214;-70
2021/12/18 11:36:41;;;;;;;26.85;14.35;;;5.30;99.90;;;;;;4995560;28;20698;-70
2021/12/18 11:39:09;;;;;;;23.80;14.30;;;5.40;99.90;;;;;;4995430;28;20206;-70
2021/12/18 11:41:40;;;;;;;25.13;14.80;;;5.40;99.90;;;;;;4996114;28;20209;-70
2021/12/18 11:44:30;;;;;;;23.48;14.95;;;5.50;99.90;;;;;;4995859;28;20194;-70
2021/12/18 11:46:58;;;;;;;25.27;15.93;;;5.50;99.90;;;;;;4996006;28;20783;-72
2021/12/18 11:49:42;;;;;;;25.50;15.77;;;5.50;99.90;;;;;;4996299;28;20208;-70
2021/12/18 11:52:08;;;;;;;26.25;15.40;;;5.40;99.90;;;;;;4995495;28;20206;-71
2021/12/18 11:54:51;;;;;;;30.42;16.27;;;5.30;99.90;;;;;;4996437;28;20573;-71
2021/12/18 11:57:40;;;;;;;28.25;15.18;;;5.30;99.90;;;;;;4997268;28;20219;-70
2021/12/18 12:00:18;;;;;;;26.20;16.98;;;5.40;99.90;;;;;;4995581;28;20187;-70
2021/12/18 12:02:47;;;;;;;25.38;15.00;;;5.40;99.90;;;;;;4994777;28;20256;-71
2021/12/18 12:05:16;;;;;;;24.52;15.25;;;5.50;99.90;;;;;;4994915;28;20209;-70
2021/12/18 12:07:44;;;;;;;24.23;13.73;;;5.50;99.90;;;;;;4994864;28;20286;-71
2021/12/18 12:10:21;;;;;;;26.58;14.13;;;5.40;99.90;;;;;;4995183;28;20202;-70
2021/12/18 12:12:56;;;;;;;23.45;12.93;;;5.40;99.90;;;;;;4994073;28;20214;-70
2021/12/18 12:15:26;;;;;;;26.63;15.05;;;5.40;99.90;;;;;;4994579;28;20206;-71
2021/12/18 12:18:03;;;;;;;23.75;14.77;;;5.30;99.90;;;;;;4995048;28;20215;-70
2021/12/18 12:20:39;;;;;;;23.80;12.73;;;5.40;99.90;;;;;;4994544;28;20649;-71
2021/12/18 12:23:06;;;;;;;20.27;13.07;;;5.30;99.90;;;;;;4995465;28;20634;-69
2021/12/18 12:25:50;;;;;;;22.25;14.32;;;5.30;99.90;;;;;;4994328;28;20572;-69
2021/12/18 12:28:20;;;;;;;23.92;13.35;;;5.30;99.90;;;;;;4995355;28;20204;-70
2021/12/18 12:31:04;;;;;;;20.98;12.18;;;5.30;99.90;;;;;;4994680;28;20226;-70
2021/12/18 12:33:33;;;;;;;19.08;12.35;;;5.30;99.90;;;;;;4994699;28;20216;-71
2021/12/18 12:36:29;;;;;;;14.60;9.80;;;5.30;99.90;;;;;;4994860;28;20211;-69
2021/12/18 12:38:59;;;;;;;19.30;10.90;;;5.10;99.90;;;;;;4982555;28;20202;-70
2021/12/18 12:41:43;;;;;;;17.80;10.40;;;5.10;99.90;;;;;;4994971;28;20637;-70
2021/12/18 12:44:32;;;;;;;16.20;9.63;;;5.00;99.90;;;;;;4994327;28;20203;-70
2021/12/18 12:47:15;;;;;;;19.55;11.50;;;5.10;99.90;;;;;;4993837;28;20615;-70
2021/12/18 12:49:47;;;;;;;22.67;12.90;;;5.10;99.90;;;;;;4994170;28;20653;-70
2021/12/18 12:52:16;;;;;;;21.73;12.98;;;5.10;99.90;;;;;;4994927;28;20191;-71
2021/12/18 12:54:45;;;;;;;19.88;12.05;;;5.10;99.90;;;;;;4995353;28;20418;-70
2021/12/18 12:57:24;;;;;;;23.35;12.38;;;5.20;99.90;;;;;;4994448;28;20634;-70
2021/12/18 12:59:51;;;;;;;23.00;13.80;;;5.10;99.90;;;;;;4994545;28;20578;-70
2021/12/18 13:02:17;;;;;;;22.67;14.40;;;5.10;99.90;;;;;;4995305;28;20260;-74
2021/12/18 13:04:44;;;;;;;21.00;11.30;;;5.20;99.90;;;;;;4994511;28;20575;-71
2021/12/18 13:07:10;;;;;;;19.50;12.45;;;5.30;99.90;;;;;;4994649;28;20226;-71
2021/12/18 13:09:46;;;;;;;19.33;11.45;;;5.20;99.90;;;;;;4994637;28;20210;-70
2021/12/18 13:12:13;;;;;;;17.90;11.30;;;5.20;99.90;;;;;;4976632;28;20206;-71
2021/12/18 13:14:42;;;;;;;20.58;12.98;;;5.10;99.90;;;;;;4994243;28;20623;-70
2021/12/18 13:17:20;;;;;;;20.05;12.00;;;5.10;99.90;;;;;;4994200;28;20648;-72
2021/12/18 13:19:58;;;;;;;15.38;11.52;;;5.10;99.90;;;;;;4994228;28;20210;-71
2021/12/18 13:22:30;;;;;;;19.70;12.48;;;5.10;99.90;;;;;;4976617;28;20658;-70
2021/12/18 13:25:07;;;;;;;22.20;13.00;;;5.00;99.90;;;;;;4993678;28;20203;-70
2021/12/18 13:27:35;;;;;;;24.73;13.63;;;5.10;99.90;;;;;;4993347;28;20202;-70
2021/12/18 13:30:20;;;;;;;21.35;13.57;;;5.10;99.90;;;;;;4994326;28;20214;-69